Gravelly, Arkansas
Current Conditions -  °F | °C
As of 10:42 PM on Thursday 20 Nov 2014 (Local Time) from KMWT Reporting Station
Broken Clouds Broken Clouds  
Wind Chill:   Ceiling: 3600
Heat Index:   Visibility: 10mi
Dew Point:   Wind: 0mph
Humidity: 83%   Direction: NA
Pressure: 30.16"   Gusts: NA
Location:  34.88°N, 93.69°W
Report Text: KMWT 210442Z AUTO 00000KT 10SM FEW022 SCT027 BKN036 09/07 A3016 RMK AO2 T00940067
Loading
Personal Weather Stations






























Interactive Weather Map New forecast layout! Learn more

10-Day Weather Forecast

Advertisements
Track Severe Weather on mobile